Time;durP1;ratioP1;P1;durP2;ratioP2;P2;SDS_P1;SDS_P2;PMS_P1;PMS_P2;Temp;Humidity;BMP_temperature;BMP_pressure;BME280_temperature;BME280_humidity;BME280_pressure;Samples;Min_cycle;Max_cycle;Signal;HPM_P1;HPM_P2
2021/12/28 00:05:09;;;;;;;1999.90;999.90;;;;;;;-1.03;68.80;100046.84;15744672;28;20480;-65
2021/12/28 00:12:43;;;;;;;1999.90;999.90;;;;;;;-1.44;70.29;100044.03;15726754;28;20048;-65
2021/12/28 00:20:17;;;;;;;1999.90;999.90;;;;;;;-1.20;68.88;100056.13;15743563;28;20076;-66
2021/12/28 00:27:49;;;;;;;1999.90;999.90;;;;;;;-1.24;69.24;100052.31;15725850;28;20040;-66
2021/12/28 00:35:26;;;;;;;1999.90;999.90;;;;;;;-1.25;69.43;100039.72;15708217;28;20049;-66
2021/12/28 00:43:00;;;;;;;1999.90;999.90;;;;;;;-1.40;69.56;100020.50;15743446;28;20045;-65
2021/12/28 00:50:35;;;;;;;1999.90;999.90;;;;;;;-1.38;69.77;100022.97;15742639;28;20040;-64
2021/12/28 00:58:08;;;;;;;1999.90;999.90;;;;;;;-1.56;70.26;100013.38;15747588;28;20543;-63
2021/12/28 01:06:07;;;;;;;1999.90;999.90;;;;;;;-1.36;70.33;100029.81;15748701;28;20131;-65
2021/12/28 01:13:57;;;;;;;1999.90;999.90;;;;;;;-1.47;69.95;100022.69;15724073;28;20728;-63
2021/12/28 01:21:31;;;;;;;1999.90;999.90;;;;;;;-1.67;70.57;100008.94;15723043;28;20143;-65
2021/12/28 01:29:04;;;;;;;1999.90;999.90;;;;;;;-1.67;71.13;99982.41;15724482;28;20120;-64
2021/12/28 01:36:39;;;;;;;1999.90;999.90;;;;;;;-1.88;71.99;99972.50;15722077;28;20505;-65
2021/12/28 01:44:12;;;;;;;1999.90;999.90;;;;;;;-1.30;69.88;99993.16;15725282;28;20063;-64
2021/12/28 01:51:46;;;;;;;1999.90;999.90;;;;;;;-1.42;70.11;99998.06;15721894;28;20052;-64
2021/12/28 01:59:22;;;;;;;1999.90;999.90;;;;;;;-1.32;69.96;99984.41;15721254;28;20139;-64
2021/12/28 02:06:57;;;;;;;1999.90;999.90;;;;;;;-1.31;70.10;100004.38;15723230;28;20049;-65
2021/12/28 02:14:30;;;;;;;1999.90;999.90;;;;;;;-1.47;70.48;99963.28;15753684;28;20131;-65
2021/12/28 02:22:04;;;;;;;1999.90;999.90;;;;;;;-1.37;70.30;99932.38;15735492;28;20080;-64
2021/12/28 02:29:37;;;;;;;1999.90;999.90;;;;;;;-1.51;70.25;99942.22;15735893;28;20049;-65
2021/12/28 02:37:11;;;;;;;1999.90;999.90;;;;;;;-1.39;70.17;99941.97;15735325;28;20048;-63
2021/12/28 02:44:44;;;;;;;1999.90;999.90;;;;;;;-1.65;70.77;99949.34;15733280;28;20041;-64
2021/12/28 02:52:18;;;;;;;1999.90;999.90;;;;;;;-1.53;70.12;99925.28;15750690;28;20540;-63
2021/12/28 02:59:51;;;;;;;1999.90;999.90;;;;;;;-1.50;69.96;99921.97;15750147;28;20044;-64
2021/12/28 03:07:25;;;;;;;1999.90;999.90;;;;;;;-1.75;70.75;99904.47;15749452;28;20037;-65
2021/12/28 03:14:57;;;;;;;1999.90;999.90;;;;;;;-1.69;70.80;99912.66;15717969;28;20076;-65
2021/12/28 03:22:36;;;;;;;1999.90;999.90;;;;;;;-1.65;70.73;99900.09;15719958;28;20119;-65
2021/12/28 03:30:13;;;;;;;1999.90;999.90;;;;;;;-1.74;71.31;99880.66;15757864;28;20059;-65
2021/12/28 03:37:47;;;;;;;1999.90;999.90;;;;;;;-1.64;70.44;99869.72;15744428;28;20044;-65
2021/12/28 03:45:19;;;;;;;1999.90;999.90;;;;;;;-1.59;70.56;99850.56;15769775;28;20051;-67
2021/12/28 03:52:54;;;;;;;1999.90;999.90;;;;;;;-1.47;70.67;99836.59;15757648;28;20041;-66
2021/12/28 04:00:30;;;;;;;1999.90;999.90;;;;;;;-1.32;70.38;99827.56;15771680;28;20049;-65
2021/12/28 04:08:04;;;;;;;1999.90;999.90;;;;;;;-1.56;70.71;99816.38;15755359;28;20502;-66
2021/12/28 04:15:37;;;;;;;1999.90;999.90;;;;;;;-1.37;70.09;99816.63;15715149;28;20045;-64
2021/12/28 04:23:11;;;;;;;1999.90;999.90;;;;;;;-1.15;69.49;99808.91;15745072;28;20520;-64
2021/12/28 04:30:44;;;;;;;1999.90;999.90;;;;;;;-1.32;70.60;99819.34;15711357;28;20044;-65
2021/12/28 04:38:18;;;;;;;1999.90;999.90;;;;;;;-1.29;70.52;99803.19;15727166;28;20135;-64
2021/12/28 04:45:50;;;;;;;1999.90;999.90;;;;;;;-1.32;70.95;99801.00;15725629;28;20047;-65
2021/12/28 04:53:24;;;;;;;1999.90;999.90;;;;;;;-1.07;69.69;99802.84;15727204;28;20036;-64
2021/12/28 05:00:57;;;;;;;1999.90;999.90;;;;;;;-1.02;69.69;99789.16;15725347;28;20037;-65
2021/12/28 05:08:32;;;;;;;1999.90;999.90;;;;;;;-0.80;69.38;99829.91;15725791;28;20143;-64
2021/12/28 05:16:05;;;;;;;1999.90;999.90;;;;;;;-0.75;69.53;99802.47;15725212;28;20032;-65
2021/12/28 05:23:39;;;;;;;1999.90;999.90;;;;;;;-0.68;69.00;99794.78;15741986;28;20037;-65
2021/12/28 05:31:12;;;;;;;1999.90;999.90;;;;;;;-0.63;69.32;99789.25;15727024;28;20048;-64
2021/12/28 05:38:46;;;;;;;;;;;;;;;-0.80;69.59;99772.38;15724515;28;20095;-64
2021/12/28 05:46:18;;;;;;;1999.90;999.90;;;;;;;-0.67;69.95;99768.19;15739358;28;20018;-65
2021/12/28 05:53:52;;;;;;;1999.90;999.90;;;;;;;-0.64;69.47;99765.69;15722300;28;20401;-65
2021/12/28 06:01:25;;;;;;;1999.90;999.90;;;;;;;-0.69;69.50;99751.22;15738823;28;20045;-65
2021/12/28 06:08:59;;;;;;;1999.90;999.90;;;;;;;-0.35;68.93;99743.88;15722198;28;20148;-65
2021/12/28 06:16:31;;;;;;;1999.90;999.90;;;;;;;-0.67;69.11;99741.63;15733539;28;20553;-65
2021/12/28 06:24:07;;;;;;;1999.90;999.90;;;;;;;-0.45;69.40;99756.84;15709840;28;20491;-66
2021/12/28 06:31:39;;;;;;;1999.90;999.90;;;;;;;-0.74;70.47;99754.78;15728742;28;20501;-65
2021/12/28 06:39:14;;;;;;;1999.90;999.90;;;;;;;-0.31;69.20;99757.84;15719999;28;20131;-66
2021/12/28 06:46:47;;;;;;;1999.90;999.90;;;;;;;-0.36;69.64;99750.47;15735481;28;20131;-64
2021/12/28 06:54:21;;;;;;;1999.90;999.90;;;;;;;-0.19;69.39;99735.56;15721620;28;20412;-65
2021/12/28 07:01:54;;;;;;;1999.90;999.90;;;;;;;-0.49;70.64;99728.38;15731257;28;20044;-65
2021/12/28 07:09:28;;;;;;;1999.90;999.90;;;;;;;-0.51;70.80;99711.41;15717404;28;20040;-63
2021/12/28 07:17:01;;;;;;;1999.90;999.90;;;;;;;-0.14;69.88;99713.56;15748919;28;20051;-66
2021/12/28 07:24:35;;;;;;;1999.90;999.90;;;;;;;-0.25;70.82;99704.63;15748447;28;20071;-65
2021/12/28 07:32:08;;;;;;;1999.90;999.90;;;;;;;-0.21;70.74;99702.09;15749992;28;20123;-66
2021/12/28 07:39:42;;;;;;;1999.90;999.90;;;;;;;-0.27;71.57;99689.56;15731358;28;20036;-66
2021/12/28 07:47:15;;;;;;;1999.90;999.90;;;;;;;-0.26;71.58;99685.72;15729777;28;20063;-65
2021/12/28 07:54:49;;;;;;;1999.90;999.90;;;;;;;0.18;70.52;99688.34;15747135;28;20532;-64
2021/12/28 08:02:22;;;;;;;1999.90;999.90;;;;;;;0.08;70.84;99696.66;15745590;28;20048;-66
2021/12/28 08:09:56;;;;;;;1999.90;999.90;;;;;;;0.41;70.29;99705.94;15745776;28;20094;-64
2021/12/28 08:17:29;;;;;;;1999.90;999.90;;;;;;;0.65;69.48;99697.72;15727982;28;20037;-65
2021/12/28 08:25:04;;;;;;;1999.90;999.90;;;;;;;0.86;69.92;99690.88;15745842;28;20101;-65
2021/12/28 08:32:36;;;;;;;1999.90;999.90;;;;;;;0.85;70.42;99681.00;15726406;28;20136;-65
2021/12/28 08:40:15;;;;;;;1999.90;999.90;;;;;;;1.07;69.37;99680.47;15744752;28;20082;-66
2021/12/28 08:47:49;;;;;;;1999.90;999.90;;;;;;;0.84;70.57;99682.13;15710782;28;20452;-64
2021/12/28 08:55:24;;;;;;;1999.90;999.90;;;;;;;1.08;70.00;99671.91;15743941;28;20079;-65
2021/12/28 09:02:58;;;;;;;1999.90;999.90;;;;;;;0.93;70.53;99663.03;15725456;28;20044;-64
2021/12/28 09:10:35;;;;;;;1999.90;999.90;;;;;;;1.02;70.20;99656.59;15710206;28;20044;-63
2021/12/28 09:18:08;;;;;;;1999.90;999.90;;;;;;;1.00;70.65;99655.28;15749448;28;20051;-66
2021/12/28 09:25:42;;;;;;;1999.90;999.90;;;;;;;1.44;69.72;99655.72;15757253;28;20055;-64
2021/12/28 09:33:15;;;;;;;1999.90;999.90;;;;;;;1.25;69.59;99654.94;15744457;28;20059;-66
2021/12/28 09:40:50;;;;;;;1999.90;999.90;;;;;;;1.39;69.71;99644.00;15740459;28;20119;-65
2021/12/28 09:48:23;;;;;;;1999.90;999.90;;;;;;;1.31;70.54;99644.66;15721662;28;20098;-65
2021/12/28 09:55:58;;;;;;;1999.90;999.90;;;;;;;1.50;71.52;99641.91;15720414;28;20102;-66
2021/12/28 10:03:30;;;;;;;1999.90;999.90;;;;;;;1.45;71.58;99634.53;15719300;28;20055;-66
2021/12/28 10:11:04;;;;;;;1999.90;999.90;;;;;;;1.67;71.50;99629.25;15739338;28;20051;-66
2021/12/28 10:18:37;;;;;;;1999.90;999.90;;;;;;;1.86;71.20;99615.44;15720294;28;20514;-66
2021/12/28 10:26:15;;;;;;;1999.90;999.90;;;;;;;2.59;70.03;99603.56;15703986;28;20589;-66
2021/12/28 10:33:54;;;;;;;1999.90;999.90;;;;;;;2.25;69.31;99590.22;15748475;28;20412;-65
2021/12/28 10:41:28;;;;;;;1999.90;999.90;;;;;;;2.39;69.65;99587.47;15722625;28;20484;-65
2021/12/28 10:49:02;;;;;;;1999.90;999.90;;;;;;;2.19;70.28;99563.94;15718702;28;20528;-67
2021/12/28 10:56:39;;;;;;;1999.90;999.90;;;;;;;2.42;69.96;99564.84;15734888;28;20048;-64
2021/12/28 11:04:14;;;;;;;1999.90;999.90;;;;;;;2.28;70.25;99550.25;15748754;28;20051;-67
2021/12/28 11:11:48;;;;;;;1999.90;999.90;;;;;;;2.49;70.18;99551.44;15748213;28;20132;-64
2021/12/28 11:19:25;;;;;;;1999.90;999.90;;;;;;;2.72;69.86;99533.09;15730523;28;20041;-64
2021/12/28 11:26:59;;;;;;;1999.90;999.90;;;;;;;2.88;69.05;99514.25;15729917;28;20073;-65
2021/12/28 11:34:33;;;;;;;1999.90;999.90;;;;;;;2.98;69.64;99491.97;15747881;28;20048;-64
2021/12/28 11:42:09;;;;;;;1999.90;999.90;;;;;;;3.08;69.96;99486.19;15711813;28;20512;-66
2021/12/28 11:49:44;;;;;;;1999.90;999.90;;;;;;;2.97;69.57;99470.22;15730187;28;20667;-66
2021/12/28 11:57:20;;;;;;;1999.90;999.90;;;;;;;3.09;69.51;99467.72;15747793;28;20119;-64
2021/12/28 12:04:57;;;;;;;1999.90;999.90;;;;;;;3.14;69.70;99451.88;15741572;28;20398;-66
2021/12/28 12:12:49;;;;;;;1999.90;999.90;;;;;;;2.83;70.63;99451.81;15751423;28;20052;-65
2021/12/28 12:20:27;;;;;;;1999.90;999.90;;;;;;;3.11;70.27;99437.91;15728239;28;20135;-65
2021/12/28 12:28:03;;;;;;;1999.90;999.90;;;;;;;3.01;71.27;99432.66;15745265;28;20577;-65
2021/12/28 12:35:40;;;;;;;1999.90;999.90;;;;;;;3.21;70.80;99406.50;15727661;28;20105;-64
2021/12/28 12:43:14;;;;;;;1999.90;999.90;;;;;;;3.26;71.22;99400.88;15744045;28;20047;-65
2021/12/28 12:50:47;;;;;;;1999.90;999.90;;;;;;;3.10;71.80;99384.72;15743098;28;20044;-65
2021/12/28 12:58:23;;;;;;;1999.90;999.90;;;;;;;3.14;72.13;99380.22;15708721;28;20131;-63
2021/12/28 13:05:55;;;;;;;1999.90;999.90;;;;;;;3.25;72.03;99355.16;15723237;28;20099;-65
2021/12/28 13:13:29;;;;;;;1999.90;999.90;;;;;;;3.21;72.73;99352.19;15727784;28;20080;-64
2021/12/28 13:21:02;;;;;;;1999.90;999.90;;;;;;;3.63;71.33;99338.88;15723034;28;20032;-60
2021/12/28 13:28:36;;;;;;;1999.90;999.90;;;;;;;3.70;71.42;99329.00;15739938;28;20582;-64
2021/12/28 13:36:09;;;;;;;1999.90;999.90;;;;;;;3.57;71.60;99310.66;15713528;28;20405;-63
2021/12/28 13:43:43;;;;;;;1999.90;999.90;;;;;;;3.82;71.11;99311.00;15721644;28;20053;-64
2021/12/28 13:51:18;;;;;;;1999.90;999.90;;;;;;;3.89;71.09;99303.09;15705306;28;20040;-64
2021/12/28 13:58:54;;;;;;;1999.90;999.90;;;;;;;3.76;71.51;99299.34;15739456;28;20127;-63
2021/12/28 14:06:29;;;;;;;1999.90;999.90;;;;;;;3.86;71.24;99289.94;15753152;28;20044;-62
2021/12/28 14:14:14;;;;;;;1999.90;999.90;;;;;;;4.17;70.06;99284.25;15750312;28;20055;-64
2021/12/28 14:21:49;;;;;;;1999.90;999.90;;;;;;;4.34;70.14;99275.97;15723753;28;20520;-69
2021/12/28 14:29:31;;;;;;;1999.90;999.90;;;;;;;4.13;70.24;99269.47;15750714;28;20048;-68
2021/12/28 14:37:06;;;;;;;1999.90;999.90;;;;;;;4.27;70.05;99265.44;15744108;28;20173;-63
2021/12/28 14:44:42;;;;;;;1999.90;999.90;;;;;;;4.22;70.79;99268.34;15880762;22;20493;-61
2021/12/28 14:52:17;;;;;;;1999.90;999.90;;;;;;;4.09;71.08;99261.03;15748919;28;20044;-61
2021/12/28 14:59:53;;;;;;;1999.90;999.90;;;;;;;3.91;72.07;99249.19;15751869;28;20039;-64
2021/12/28 15:07:28;;;;;;;1999.90;999.90;;;;;;;3.86;72.22;99230.03;15749802;28;20120;-64
2021/12/28 15:15:01;;;;;;;1999.90;999.90;;;;;;;3.70;72.91;99220.59;15753418;28;20387;-64
2021/12/28 15:22:37;;;;;;;1999.90;999.90;;;;;;;3.76;72.73;99206.34;15736577;28;20053;-64
2021/12/28 15:30:13;;;;;;;1999.90;999.90;;;;;;;3.73;72.60;99195.13;15748430;28;20593;-64
2021/12/28 15:37:49;;;;;;;1999.90;999.90;;;;;;;3.92;72.53;99181.00;15748611;28;20513;-63
2021/12/28 15:45:24;;;;;;;1999.90;999.90;;;;;;;3.81;73.04;99182.47;15749715;28;20048;-63
2021/12/28 15:52:56;;;;;;;1999.90;999.90;;;;;;;3.93;73.01;99171.59;15754534;28;20440;-64
2021/12/28 16:00:34;;;;;;;1999.90;999.90;;;;;;;3.97;73.15;99165.09;15750164;28;20093;-64
2021/12/28 16:08:07;;;;;;;1999.90;999.90;;;;;;;4.35;71.79;99156.88;15745500;28;20033;-63
2021/12/28 16:15:41;;;;;;;1999.90;999.90;;;;;;;4.31;72.16;99144.88;15743804;28;20124;-63
2021/12/28 16:23:13;;;;;;;1999.90;999.90;;;;;;;4.44;71.96;99148.56;15744926;28;20074;-63
2021/12/28 16:30:47;;;;;;;1999.90;999.90;;;;;;;4.49;72.31;99151.16;15742829;28;20161;-63
2021/12/28 16:38:20;;;;;;;1999.90;999.90;;;;;;;4.64;71.91;99152.56;15730013;28;20471;-63
2021/12/28 16:45:54;;;;;;;1999.90;999.90;;;;;;;4.63;72.39;99157.28;15741982;28;20450;-65
2021/12/28 16:53:26;;;;;;;1999.90;999.90;;;;;;;4.86;71.89;99157.81;15740406;28;20056;-61
2021/12/28 17:01:00;;;;;;;1999.90;999.90;;;;;;;4.96;72.01;99162.16;15744124;28;20060;-63
2021/12/28 17:08:33;;;;;;;1999.90;999.90;;;;;;;4.90;71.94;99161.56;15724867;28;20459;-60
2021/12/28 17:16:07;;;;;;;1999.90;999.90;;;;;;;5.07;71.67;99141.28;15741394;28;20090;-61
2021/12/28 17:23:40;;;;;;;1999.90;999.90;;;;;;;5.00;72.52;99143.75;15739971;28;20044;-62
2021/12/28 17:31:15;;;;;;;1999.90;999.90;;;;;;;4.99;72.46;99116.44;15741650;28;20044;-61
2021/12/28 17:38:48;;;;;;;1999.90;999.90;;;;;;;5.01;72.75;99115.00;15739900;28;20086;-61
2021/12/28 17:46:22;;;;;;;1999.90;999.90;;;;;;;5.16;72.30;99108.88;15739477;28;20571;-65
2021/12/28 17:53:56;;;;;;;1999.90;999.90;;;;;;;5.14;72.92;99113.13;15739790;28;20040;-62
2021/12/28 18:01:29;;;;;;;;;;;;;;;5.23;72.81;99113.88;15729157;28;20080;-62
2021/12/28 18:09:02;;;;;;;;;;;;;;;5.47;71.29;99114.00;15732901;28;19924;-65
2021/12/28 18:16:36;;;;;;;1999.90;999.90;;;;;;;5.26;72.84;99099.38;15715353;28;19926;-61
2021/12/28 18:24:12;;;;;;;1999.90;999.90;;;;;;;5.13;72.96;99103.22;15737694;28;20538;-61
2021/12/28 18:31:46;;;;;;;1999.90;999.90;;;;;;;5.26;73.42;99106.84;15737816;28;20045;-60
2021/12/28 18:39:19;;;;;;;1999.90;999.90;;;;;;;5.10;73.38;99112.97;15720926;28;20062;-59
2021/12/28 18:46:53;;;;;;;1999.90;999.90;;;;;;;5.22;72.09;99112.25;15738785;28;20051;-60
2021/12/28 18:54:26;;;;;;;1999.90;999.90;;;;;;;5.40;72.03;99127.56;15748724;28;20052;-60
2021/12/28 19:02:00;;;;;;;1999.90;999.90;;;;;;;5.04;73.57;99124.56;15750765;28;20059;-63
2021/12/28 19:09:33;;;;;;;1999.90;999.90;;;;;;;5.26;72.63;99124.25;15749937;28;20543;-60
2021/12/28 19:17:08;;;;;;;1999.90;999.90;;;;;;;5.11;74.45;99136.72;15747362;28;20087;-63
2021/12/28 19:24:41;;;;;;;1999.90;999.90;;;;;;;5.01;75.01;99133.53;15747853;28;20044;-61
2021/12/28 19:32:15;;;;;;;1999.90;999.90;;;;;;;4.95;76.36;99140.38;15753001;28;20044;-62
2021/12/28 19:39:47;;;;;;;1999.90;999.90;;;;;;;5.12;76.39;99143.88;15752520;28;20082;-61
2021/12/28 19:47:23;;;;;;;1999.90;999.90;;;;;;;4.84;77.74;99148.25;15746336;28;20040;-65
2021/12/28 19:54:56;;;;;;;1999.90;999.90;;;;;;;4.69;78.22;99148.78;15729618;28;20048;-62
2021/12/28 20:02:30;;;;;;;1999.90;999.90;;;;;;;4.88;78.87;99147.25;15734752;28;20386;-58
2021/12/28 20:10:04;;;;;;;1999.90;999.90;;;;;;;4.71;79.07;99139.06;15744648;28;20078;-60
2021/12/28 20:17:38;;;;;;;1999.90;999.90;;;;;;;4.88;78.68;99149.19;15743203;28;20086;-60
2021/12/28 20:25:13;;;;;;;1999.90;999.90;;;;;;;5.10;78.25;99156.38;15743294;28;20141;-61
2021/12/28 20:32:48;;;;;;;1999.90;999.90;;;;;;;5.17;77.53;99160.25;15741833;28;20074;-59
2021/12/28 20:40:21;;;;;;;1999.90;999.90;;;;;;;4.95;78.94;99148.69;15727909;28;20090;-58
2021/12/28 20:47:55;;;;;;;1999.90;999.90;;;;;;;4.91;79.08;99130.00;15737129;28;20044;-64
2021/12/28 20:55:32;;;;;;;1999.90;999.90;;;;;;;4.93;79.70;99129.66;15739104;28;20076;-65
2021/12/28 21:03:07;;;;;;;1999.90;999.90;;;;;;;5.16;79.07;99144.00;15734645;28;20103;-63
2021/12/28 21:10:49;;;;;;;1999.90;999.90;;;;;;;5.10;78.90;99153.63;15741189;28;20036;-60
2021/12/28 21:18:25;;;;;;;1999.90;999.90;;;;;;;4.71;79.60;99133.53;15732923;28;20559;-63
2021/12/28 21:25:58;;;;;;;1999.90;999.90;;;;;;;4.72;79.81;99137.09;15734335;28;20041;-62
2021/12/28 21:33:33;;;;;;;1999.90;999.90;;;;;;;4.92;79.92;99155.69;15731071;28;20043;-61
2021/12/28 21:41:06;;;;;;;1999.90;999.90;;;;;;;4.85;79.40;99150.69;15726606;28;20135;-61
2021/12/28 21:48:40;;;;;;;1999.90;999.90;;;;;;;4.94;78.93;99172.75;15720463;28;20072;-61
2021/12/28 21:56:12;;;;;;;1999.90;999.90;;;;;;;4.52;81.32;99183.66;15723703;28;20522;-62
2021/12/28 22:03:46;;;;;;;1999.90;999.90;;;;;;;4.80;79.29;99178.50;15734302;28;20143;-63
2021/12/28 22:11:19;;;;;;;1999.90;999.90;;;;;;;5.04;78.91;99190.91;15734662;28;20110;-62
2021/12/28 22:18:53;;;;;;;1999.90;999.90;;;;;;;4.92;79.99;99188.88;15727532;28;20040;-62
2021/12/28 22:26:26;;;;;;;1999.90;999.90;;;;;;;4.77;80.88;99197.69;15741333;28;20064;-62
2021/12/28 22:34:00;;;;;;;1999.90;999.90;;;;;;;5.05;80.18;99209.94;15749047;28;20114;-62
2021/12/28 22:41:34;;;;;;;;;;;;;;;5.34;78.77;99217.44;15748627;28;20391;-62
2021/12/28 22:49:07;;;;;;;1999.90;999.90;;;;;;;5.40;78.25;99210.53;15731726;28;19966;-62
2021/12/28 22:56:40;;;;;;;1999.90;999.90;;;;;;;5.30;78.04;99210.91;15748653;28;20496;-64
2021/12/28 23:04:14;;;;;;;1999.90;999.90;;;;;;;5.16;79.26;99221.41;15747794;28;20036;-62
2021/12/28 23:11:47;;;;;;;1999.90;999.90;;;;;;;5.12;79.44;99232.34;15747243;28;20236;-63
2021/12/28 23:19:21;;;;;;;1999.90;999.90;;;;;;;5.04;79.17;99227.66;15748114;28;20123;-61
2021/12/28 23:26:53;;;;;;;1999.90;999.90;;;;;;;5.14;79.47;99230.06;15745549;28;20040;-62
2021/12/28 23:34:27;;;;;;;1999.90;999.90;;;;;;;5.42;77.96;99238.69;15727642;28;20049;-63
2021/12/28 23:42:00;;;;;;;1999.90;999.90;;;;;;;5.14;79.87;99251.38;15743329;28;20080;-63
2021/12/28 23:49:34;;;;;;;1999.90;999.90;;;;;;;5.19;80.05;99260.28;15744608;28;20080;-63
2021/12/28 23:57:07;;;;;;;1999.90;999.90;;;;;;;5.46;79.23;99272.03;15744194;28;20565;-61
